createdAt,value
2017-11-22T00:02:51.960Z,99.90
2017-11-22T00:06:01.723Z,99.90
2017-11-22T00:09:12.239Z,99.90
2017-11-22T00:12:23.336Z,99.90
2017-11-22T00:15:34.108Z,99.90
2017-11-22T00:18:44.244Z,99.90
2017-11-22T00:21:54.883Z,99.90
2017-11-22T00:25:04.871Z,99.90
2017-11-22T00:28:15.476Z,99.90
2017-11-22T00:31:26.125Z,99.90
2017-11-22T00:34:35.992Z,99.90
2017-11-22T00:37:46.605Z,99.90
2017-11-22T00:40:56.702Z,99.90
2017-11-22T00:44:08.060Z,99.90
2017-11-22T00:47:19.155Z,99.90
2017-11-22T00:50:28.960Z,99.90
2017-11-22T00:53:38.700Z,99.90
2017-11-22T00:56:48.528Z,99.90
2017-11-22T00:59:59.668Z,99.90
2017-11-22T01:03:09.894Z,99.90
2017-11-22T01:06:19.700Z,99.90
2017-11-22T01:09:30.353Z,99.90
2017-11-22T01:12:41.130Z,99.90
2017-11-22T01:15:52.117Z,99.90
2017-11-22T01:19:01.918Z,99.90
2017-11-22T01:22:12.615Z,99.90
2017-11-22T01:25:22.827Z,99.90
2017-11-22T01:28:33.233Z,99.90
2017-11-22T01:31:43.235Z,99.90
2017-11-22T01:34:53.052Z,99.90
2017-11-22T01:38:03.709Z,99.90
2017-11-22T01:41:15.144Z,99.90
2017-11-22T01:44:25.099Z,99.90
2017-11-22T01:47:35.143Z,99.90
2017-11-22T01:50:45.761Z,99.90
2017-11-22T01:53:56.816Z,99.90
2017-11-22T01:57:07.105Z,99.90
2017-11-22T02:00:16.953Z,99.90
2017-11-22T02:03:26.777Z,99.90
2017-11-22T02:06:36.682Z,99.90
2017-11-22T02:09:46.453Z,99.90
2017-11-22T02:12:56.517Z,99.90
2017-11-22T02:16:06.381Z,99.90
2017-11-22T02:19:16.925Z,99.90
2017-11-22T02:22:26.961Z,99.90
2017-11-22T02:25:36.905Z,99.90
2017-11-22T02:28:46.864Z,99.90
2017-11-22T02:31:56.364Z,99.90
2017-11-22T02:35:07.198Z,99.90
2017-11-22T02:38:17.501Z,99.90
2017-11-22T02:41:27.253Z,99.90
2017-11-22T02:44:37.153Z,99.90
2017-11-22T02:47:47.064Z,99.90
2017-11-22T02:50:56.933Z,99.90
2017-11-22T02:54:08.500Z,99.90
2017-11-22T02:57:19.187Z,99.90
2017-11-22T03:00:29.672Z,99.90
2017-11-22T03:03:39.701Z,99.90
2017-11-22T03:06:51.026Z,99.90
2017-11-22T03:10:00.794Z,99.90
2017-11-22T03:13:10.513Z,99.90
2017-11-22T03:16:20.520Z,99.90
2017-11-22T03:19:30.381Z,99.90
2017-11-22T03:22:40.949Z,99.90
2017-11-22T03:25:51.129Z,99.90
2017-11-22T03:29:00.993Z,99.90
2017-11-22T03:32:10.963Z,99.90
2017-11-22T03:35:20.970Z,99.90
2017-11-22T03:38:31.104Z,99.90
2017-11-22T03:41:40.946Z,99.90
2017-11-22T03:44:50.790Z,99.90
2017-11-22T03:48:18.510Z,99.90
2017-11-22T03:51:34.489Z,99.90
2017-11-22T03:54:44.888Z,99.90
2017-11-22T03:57:59.373Z,99.90
2017-11-22T04:01:12.084Z,99.90
2017-11-22T04:04:27.950Z,99.90
2017-11-22T04:07:37.753Z,99.90
2017-11-22T04:10:48.690Z,99.90
2017-11-22T04:13:58.816Z,99.90
2017-11-22T04:17:08.638Z,99.90
2017-11-22T04:20:24.097Z,99.90
2017-11-22T04:23:35.344Z,99.90
2017-11-22T04:26:46.244Z,99.90
2017-11-22T04:29:56.293Z,99.90
2017-11-22T04:33:06.053Z,99.90
2017-11-22T04:36:16.007Z,99.90
2017-11-22T04:39:26.464Z,99.90
2017-11-22T04:42:36.462Z,99.90
2017-11-22T04:45:48.714Z,99.90
2017-11-22T04:48:58.809Z,99.90
2017-11-22T04:52:08.925Z,99.90
2017-11-22T04:55:18.901Z,99.90
2017-11-22T04:58:28.948Z,99.90
2017-11-22T05:01:39.068Z,99.90
2017-11-22T05:04:48.957Z,99.90
2017-11-22T05:07:58.891Z,99.90
2017-11-22T05:11:08.578Z,99.90
2017-11-22T05:14:19.310Z,99.90
2017-11-22T05:17:30.127Z,99.90
2017-11-22T05:20:40.981Z,99.90
2017-11-22T05:23:52.623Z,99.90
2017-11-22T05:27:03.168Z,99.90
2017-11-22T05:30:13.122Z,99.90
2017-11-22T05:33:23.085Z,99.90
2017-11-22T05:36:33.674Z,99.90
2017-11-22T05:39:44.690Z,99.90
2017-11-22T05:42:54.866Z,99.90
2017-11-22T05:46:04.655Z,99.90
2017-11-22T05:49:15.396Z,99.90
2017-11-22T05:52:25.670Z,99.90
2017-11-22T05:55:36.083Z,99.90
2017-11-22T05:58:46.792Z,99.90
2017-11-22T06:01:58.517Z,99.90
2017-11-22T06:05:09.174Z,99.90
2017-11-22T06:08:19.665Z,99.90
2017-11-22T06:11:29.451Z,99.90
2017-11-22T06:14:40.117Z,99.90
2017-11-22T06:17:49.947Z,99.90
2017-11-22T06:21:01.294Z,99.90
2017-11-22T06:24:11.456Z,99.90
2017-11-22T06:27:21.181Z,99.90
2017-11-22T06:30:30.885Z,99.90
2017-11-22T06:33:42.406Z,99.90
2017-11-22T06:36:52.404Z,99.90
2017-11-22T06:40:02.181Z,99.90
2017-11-22T06:43:12.088Z,99.90
2017-11-22T06:46:21.797Z,99.90
2017-11-22T06:49:31.707Z,99.90
2017-11-22T06:52:41.661Z,99.90
2017-11-22T06:55:52.191Z,99.90
2017-11-22T06:59:03.233Z,99.90
2017-11-22T07:02:18.552Z,99.90
2017-11-22T07:05:29.411Z,99.90
2017-11-22T07:08:39.250Z,99.90
2017-11-22T07:11:49.369Z,99.90
2017-11-22T07:15:02.180Z,99.90
2017-11-22T07:18:12.954Z,99.90
2017-11-22T07:21:23.077Z,99.90
2017-11-22T07:24:32.957Z,99.90
2017-11-22T07:27:43.920Z,99.90
2017-11-22T07:30:53.950Z,99.90
2017-11-22T07:34:03.775Z,99.90
2017-11-22T07:37:19.253Z,99.90
2017-11-22T07:40:29.950Z,99.90
2017-11-22T07:43:39.966Z,99.90
2017-11-22T07:46:54.268Z,99.90
2017-11-22T07:50:04.640Z,99.90
2017-11-22T07:53:14.796Z,99.90
2017-11-22T07:56:25.512Z,99.90
2017-11-22T07:59:36.078Z,99.90
2017-11-22T08:02:51.819Z,99.90
2017-11-22T08:06:03.011Z,99.90
2017-11-22T08:09:13.362Z,99.90
2017-11-22T08:12:23.276Z,99.90
2017-11-22T08:15:33.861Z,99.90
2017-11-22T08:18:44.635Z,99.90
2017-11-22T08:21:55.454Z,99.90
2017-11-22T08:25:08.401Z,99.90
2017-11-22T08:28:18.951Z,99.90
2017-11-22T08:31:29.406Z,99.90
2017-11-22T08:34:40.086Z,99.90
2017-11-22T08:37:50.642Z,99.90
2017-11-22T08:41:02.068Z,99.90
2017-11-22T08:44:12.688Z,99.90
2017-11-22T08:47:24.010Z,99.90
2017-11-22T08:50:34.157Z,99.90
2017-11-22T08:53:44.106Z,99.90
2017-11-22T09:00:34.713Z,99.90
2017-11-22T09:03:45.155Z,99.90
2017-11-22T09:06:55.270Z,99.90
2017-11-22T09:10:04.957Z,99.90
2017-11-22T09:13:15.696Z,99.90
2017-11-22T09:16:26.410Z,99.90
2017-11-22T09:19:40.312Z,99.90
2017-11-22T09:22:54.372Z,99.90
2017-11-22T09:26:05.008Z,99.90
2017-11-22T09:29:14.942Z,99.90
2017-11-22T09:32:31.681Z,99.90
2017-11-22T09:35:45.676Z,99.90
2017-11-22T09:38:56.429Z,99.90
2017-11-22T09:42:06.291Z,99.90
2017-11-22T09:45:16.876Z,99.90
2017-11-22T09:48:27.912Z,99.90
2017-11-22T09:51:38.029Z,99.90
2017-11-22T09:54:47.730Z,99.90
2017-11-22T09:57:58.327Z,99.90
2017-11-22T10:01:09.544Z,99.90
2017-11-22T10:04:19.869Z,99.90
2017-11-22T10:07:30.703Z,99.90
2017-11-22T10:10:41.497Z,99.90
2017-11-22T10:13:52.531Z,99.90
2017-11-22T10:17:09.015Z,99.90
2017-11-22T10:20:20.801Z,99.90
2017-11-22T10:23:32.874Z,99.90
2017-11-22T10:26:49.136Z,99.90
2017-11-22T10:30:05.338Z,99.90
2017-11-22T10:33:15.370Z,99.90
2017-11-22T10:36:26.895Z,99.90
2017-11-22T10:39:36.901Z,99.90
2017-11-22T10:42:47.754Z,99.90
2017-11-22T10:45:57.704Z,99.90
2017-11-22T10:49:08.637Z,99.90
2017-11-22T10:52:19.812Z,99.90
2017-11-22T10:55:30.694Z,99.90
2017-11-22T10:58:42.004Z,99.90
2017-11-22T11:01:53.308Z,99.90
2017-11-22T11:05:03.600Z,99.90
2017-11-22T11:08:14.372Z,99.90
2017-11-22T11:11:25.461Z,99.90
2017-11-22T11:14:36.509Z,99.70
2017-11-22T11:17:48.356Z,99.20
2017-11-22T11:20:59.375Z,98.90
2017-11-22T11:24:11.159Z,98.90
2017-11-22T11:27:22.766Z,98.90
2017-11-22T11:30:34.127Z,99.00
2017-11-22T11:33:45.289Z,98.90
2017-11-22T11:36:56.352Z,98.70
2017-11-22T11:40:06.680Z,98.60
2017-11-22T11:43:17.294Z,98.40
2017-11-22T11:46:27.769Z,98.10
2017-11-22T11:49:37.649Z,98.30
2017-11-22T11:52:47.625Z,98.10
2017-11-22T11:55:57.980Z,98.10
2017-11-22T11:59:08.067Z,98.20
2017-11-22T12:02:19.037Z,98.60
2017-11-22T12:05:30.384Z,97.90
2017-11-22T12:08:40.598Z,97.90
2017-11-22T12:11:51.420Z,98.30
2017-11-22T12:15:02.829Z,97.70
2017-11-22T12:18:14.185Z,98.20
2017-11-22T12:21:26.687Z,98.20
2017-11-22T12:24:38.561Z,98.30
2017-11-22T12:27:48.451Z,98.30
2017-11-22T12:30:58.322Z,97.60
2017-11-22T12:34:08.206Z,97.90
2017-11-22T12:37:19.119Z,97.70
2017-11-22T12:40:29.192Z,97.70
2017-11-22T12:43:39.738Z,98.00
2017-11-22T12:46:50.522Z,98.10
2017-11-22T12:50:00.684Z,98.10
2017-11-22T12:53:11.264Z,97.90
2017-11-22T12:56:21.605Z,97.90
2017-11-22T12:59:32.072Z,97.70
2017-11-22T13:02:42.332Z,98.10
2017-11-22T13:05:52.253Z,98.00
2017-11-22T13:09:02.462Z,98.00
2017-11-22T13:12:12.565Z,97.70
2017-11-22T13:15:22.964Z,97.60
2017-11-22T13:18:33.425Z,97.60
2017-11-22T13:21:44.261Z,97.90
2017-11-22T13:24:54.625Z,97.90
2017-11-22T13:28:04.420Z,98.00
2017-11-22T13:31:15.053Z,97.90
2017-11-22T13:34:25.752Z,96.90
2017-11-22T13:37:35.598Z,96.90
2017-11-22T13:40:45.643Z,97.60
2017-11-22T13:43:55.820Z,97.30
2017-11-22T13:47:06.878Z,97.30
2017-11-22T13:50:16.594Z,97.50
2017-11-22T13:53:26.446Z,97.10
2017-11-22T13:56:37.949Z,97.10
2017-11-22T13:59:47.481Z,97.10
2017-11-22T14:02:57.382Z,96.20
2017-11-22T14:09:20.191Z,96.90
2017-11-22T14:12:30.586Z,96.70
2017-11-22T14:15:40.938Z,97.00
2017-11-22T14:18:50.922Z,97.40
2017-11-22T14:22:01.765Z,97.50
2017-11-22T14:25:11.509Z,97.60
2017-11-22T14:28:21.536Z,97.40
2017-11-22T14:31:31.169Z,97.70
2017-11-22T14:34:41.127Z,98.00
2017-11-22T14:37:51.513Z,98.10
2017-11-22T14:41:01.774Z,97.90
2017-11-22T14:44:11.305Z,98.30
2017-11-22T14:47:21.526Z,98.40
2017-11-22T14:50:31.443Z,98.40
2017-11-22T14:53:41.453Z,98.20
2017-11-22T14:56:53.069Z,98.10
2017-11-22T15:00:04.264Z,98.00
2017-11-22T15:03:14.337Z,98.30
2017-11-22T15:06:24.839Z,98.50
2017-11-22T15:09:34.794Z,98.50
2017-11-22T15:12:44.598Z,98.40
2017-11-22T15:15:54.332Z,98.50
2017-11-22T15:19:04.212Z,98.50
2017-11-22T15:22:15.008Z,98.70
2017-11-22T15:25:26.100Z,98.20
2017-11-22T15:28:36.691Z,98.20
2017-11-22T15:31:46.293Z,98.40
2017-11-22T15:34:56.375Z,98.80
2017-11-22T15:38:06.304Z,98.70
2017-11-22T15:41:16.469Z,98.50
2017-11-22T15:44:26.699Z,98.50
2017-11-22T15:47:36.875Z,98.30
2017-11-22T15:50:47.088Z,98.40
2017-11-22T15:53:57.909Z,98.70
2017-11-22T15:57:08.222Z,98.70
2017-11-22T16:00:18.795Z,98.60
2017-11-22T16:03:30.530Z,98.50
2017-11-22T16:06:42.194Z,98.50
2017-11-22T16:09:52.487Z,98.50
2017-11-22T16:13:03.435Z,98.30
2017-11-22T16:16:14.365Z,98.50
2017-11-22T16:19:25.009Z,99.10
2017-11-22T16:22:35.327Z,98.90
2017-11-22T16:25:46.624Z,98.90
2017-11-22T16:28:57.729Z,99.10
2017-11-22T16:32:09.290Z,98.40
2017-11-22T16:35:20.450Z,98.30
2017-11-22T16:38:31.084Z,98.20
2017-11-22T16:41:41.976Z,98.30
2017-11-22T16:44:52.565Z,97.60
2017-11-22T16:48:03.554Z,97.50
2017-11-22T16:51:13.986Z,97.50
2017-11-22T16:54:25.830Z,97.60
2017-11-22T16:57:35.999Z,97.60
2017-11-22T17:00:45.981Z,97.50
2017-11-22T17:03:56.578Z,97.20
2017-11-22T17:07:06.312Z,97.00
2017-11-22T17:10:16.225Z,96.80
2017-11-22T17:13:26.003Z,97.10
2017-11-22T17:16:36.320Z,96.40
2017-11-22T17:19:46.394Z,96.40
2017-11-22T17:22:57.210Z,96.00
2017-11-22T17:26:07.100Z,96.00
2017-11-22T17:29:16.840Z,96.50
2017-11-22T17:32:27.156Z,95.90
2017-11-22T17:35:37.182Z,95.90
2017-11-22T17:38:46.949Z,95.40
2017-11-22T17:41:56.956Z,95.70
2017-11-22T17:45:07.120Z,96.10
2017-11-22T17:48:17.739Z,95.60
2017-11-22T17:51:28.408Z,96.20
2017-11-22T17:54:38.676Z,96.20
2017-11-22T17:57:48.655Z,96.20
2017-11-22T18:00:58.731Z,95.80
2017-11-22T18:04:09.562Z,96.10
2017-11-22T18:07:20.008Z,96.10
2017-11-22T18:10:29.481Z,95.60
2017-11-22T18:13:39.069Z,95.30
2017-11-22T18:16:49.099Z,95.10
2017-11-22T18:19:58.990Z,95.30
2017-11-22T18:23:09.813Z,95.10
2017-11-22T18:26:20.217Z,95.10
2017-11-22T18:29:30.950Z,94.70
2017-11-22T18:32:42.439Z,94.90
2017-11-22T18:35:52.640Z,94.90
2017-11-22T18:39:03.628Z,94.80
2017-11-22T18:42:14.548Z,94.80
2017-11-22T18:45:24.377Z,94.80
2017-11-22T18:48:34.409Z,94.60
2017-11-22T18:51:45.410Z,94.70
2017-11-22T18:54:56.118Z,94.40
2017-11-22T18:58:06.125Z,94.30
2017-11-22T19:01:16.113Z,94.20
2017-11-22T19:04:26.207Z,94.80
2017-11-22T19:07:37.426Z,94.50
2017-11-22T19:10:48.303Z,94.50
2017-11-22T19:13:59.003Z,95.20
2017-11-22T19:17:10.530Z,94.90
2017-11-22T19:20:20.706Z,94.90
2017-11-22T19:23:32.078Z,94.50
2017-11-22T19:26:43.016Z,94.90
2017-11-22T19:29:53.073Z,94.90
2017-11-22T19:33:03.658Z,94.50
2017-11-22T19:36:13.561Z,95.20
2017-11-22T19:39:25.103Z,94.60
2017-11-22T19:42:36.675Z,94.20
2017-11-22T19:45:47.154Z,94.10
2017-11-22T19:48:57.771Z,94.10
2017-11-22T19:52:07.921Z,94.10
2017-11-22T19:55:17.860Z,94.40
2017-11-22T19:58:28.706Z,94.50
2017-11-22T20:01:39.395Z,94.20
2017-11-22T20:04:49.965Z,94.80
2017-11-22T20:08:11.692Z,94.50
2017-11-22T20:11:22.056Z,94.20
2017-11-22T20:14:31.963Z,94.00
2017-11-22T20:17:41.845Z,93.90
2017-11-22T20:20:51.955Z,93.30
2017-11-22T20:24:02.514Z,93.30
2017-11-22T20:27:13.210Z,92.50
2017-11-22T20:30:23.757Z,93.10
2017-11-22T20:33:34.288Z,93.10
2017-11-22T20:36:44.434Z,92.60
2017-11-22T20:39:55.140Z,92.90
2017-11-22T20:43:04.943Z,93.10
2017-11-22T20:46:15.309Z,93.80
2017-11-22T20:49:25.881Z,94.40
2017-11-22T20:52:35.983Z,94.90
2017-11-22T20:55:46.664Z,94.80
2017-11-22T20:58:56.697Z,94.50
2017-11-22T21:02:07.284Z,94.30
2017-11-22T21:05:17.926Z,95.10
2017-11-22T21:08:28.604Z,95.70
2017-11-22T21:11:38.486Z,96.00
2017-11-22T21:14:49.147Z,94.90
2017-11-22T21:17:59.076Z,95.10
2017-11-22T21:21:09.269Z,94.60
2017-11-22T21:24:19.161Z,94.50
2017-11-22T21:27:29.730Z,94.60
2017-11-22T21:30:39.625Z,96.10
2017-11-22T21:33:50.346Z,95.30
2017-11-22T21:37:01.190Z,96.40
2017-11-22T21:40:11.780Z,96.60
2017-11-22T21:43:21.620Z,95.40
2017-11-22T21:46:33.169Z,95.00
2017-11-22T21:49:43.212Z,95.00
2017-11-22T21:52:52.967Z,95.00
2017-11-22T21:56:02.822Z,95.00
2017-11-22T21:59:12.017Z,95.70
2017-11-22T22:02:21.893Z,95.30
2017-11-22T22:05:31.901Z,95.50
2017-11-22T22:08:41.624Z,96.80
2017-11-22T22:11:52.202Z,96.20
2017-11-22T22:15:02.295Z,96.20
2017-11-22T22:18:12.964Z,95.60
2017-11-22T22:21:23.571Z,95.80
2017-11-22T22:24:33.797Z,96.60
2017-11-22T22:27:45.318Z,96.90
2017-11-22T22:30:56.153Z,96.90
2017-11-22T22:34:07.639Z,96.80
2017-11-22T22:37:18.662Z,96.80
2017-11-22T22:40:30.164Z,96.80
2017-11-22T22:43:40.206Z,96.80
2017-11-22T22:46:50.824Z,96.40
2017-11-22T22:50:01.504Z,96.10
2017-11-22T22:53:12.285Z,96.00
2017-11-22T22:56:22.845Z,95.50
2017-11-22T22:59:32.838Z,95.50
2017-11-22T23:02:42.620Z,95.30
2017-11-22T23:05:52.440Z,95.40
2017-11-22T23:09:02.272Z,95.20
2017-11-22T23:12:12.109Z,95.10
2017-11-22T23:15:23.328Z,95.10
2017-11-22T23:18:33.366Z,95.00
2017-11-22T23:21:44.176Z,95.20
2017-11-22T23:24:54.152Z,95.20
2017-11-22T23:28:03.817Z,95.10
2017-11-22T23:31:13.737Z,95.00
2017-11-22T23:34:24.232Z,94.80
2017-11-22T23:37:34.296Z,94.80
2017-11-22T23:40:44.076Z,94.80
2017-11-22T23:43:54.660Z,94.60
2017-11-22T23:47:05.158Z,94.40
2017-11-22T23:50:15.207Z,94.40
2017-11-22T23:53:25.116Z,94.40
2017-11-22T23:56:34.996Z,94.30
2017-11-22T23:59:44.740Z,94.20
